Time;durP1;ratioP1;P1;durP2;ratioP2;P2;SDS_P1;SDS_P2;PMS_P1;PMS_P2;Temp;Humidity;BMP_temperature;BMP_pressure;BME280_temperature;BME280_humidity;BME280_pressure;Samples;Min_cycle;Max_cycle;Signal;HPM_P1;HPM_P2
2023/06/15 00:00:13;;;;;;;16.27;14.50;;;22.60;94.00;;;;;;5021761;28;20021;-47
2023/06/15 00:02:41;;;;;;;17.17;15.38;;;22.50;94.00;;;;;;5032599;28;20037;-46
2023/06/15 00:05:07;;;;;;;19.02;14.45;;;22.50;93.90;;;;;;5045128;28;20025;-47
2023/06/15 00:07:33;;;;;;;16.38;14.30;;;22.40;93.70;;;;;;5048255;28;20063;-47
2023/06/15 00:09:59;;;;;;;18.90;14.23;;;22.40;93.50;;;;;;5029008;28;20053;-47
2023/06/15 00:12:25;;;;;;;14.87;11.97;;;22.20;92.90;;;;;;5042199;28;20495;-47
2023/06/15 00:14:51;;;;;;;14.38;12.93;;;22.20;92.30;;;;;;5051342;28;20132;-47
2023/06/15 00:17:17;;;;;;;14.00;11.43;;;22.00;91.90;;;;;;5037045;28;20562;-48
2023/06/15 00:19:46;;;;;;;13.70;11.23;;;22.00;91.80;;;;;;5049119;28;20029;-47
2023/06/15 00:22:15;;;;;;;14.43;12.15;;;22.00;91.40;;;;;;5001772;28;20487;-47
2023/06/15 00:24:42;;;;;;;12.80;11.50;;;21.90;91.30;;;;;;5047650;28;20035;-46
2023/06/15 00:27:10;;;;;;;13.00;10.25;;;21.90;91.40;;;;;;5037449;28;20502;-46
2023/06/15 00:29:37;;;;;;;14.27;10.45;;;21.80;91.30;;;;;;5028065;28;20021;-48
2023/06/15 00:32:06;;;;;;;13.50;10.15;;;21.80;91.50;;;;;;5042492;28;20025;-46
2023/06/15 00:34:32;;;;;;;12.75;9.45;;;21.70;91.50;;;;;;5028585;28;20106;-47
2023/06/15 00:36:58;;;;;;;10.52;9.48;;;21.70;91.60;;;;;;5024279;28;20491;-47
2023/06/15 00:39:23;;;;;;;12.07;9.20;;;21.60;91.70;;;;;;5032306;28;20087;-47
2023/06/15 00:41:49;;;;;;;11.27;8.70;;;21.60;91.80;;;;;;5037665;28;20037;-47
2023/06/15 00:44:15;;;;;;;22.37;8.87;;;21.60;91.90;;;;;;5017739;28;20436;-48
2023/06/15 00:46:41;;;;;;;9.15;8.20;;;21.50;91.90;;;;;;5025430;28;20487;-46
2023/06/15 00:49:07;;;;;;;13.18;8.18;;;21.40;91.90;;;;;;5038084;28;20026;-46
2023/06/15 00:51:34;;;;;;;9.80;8.10;;;21.50;92.00;;;;;;5032097;28;20022;-48
2023/06/15 00:54:02;;;;;;;11.65;8.27;;;21.40;92.20;;;;;;5023556;28;20100;-47
2023/06/15 00:56:29;;;;;;;12.40;8.05;;;21.30;92.40;;;;;;5048720;28;20545;-46
2023/06/15 00:58:56;;;;;;;;;;;21.30;92.40;;;;;;5040561;28;20040;-47
2023/06/15 01:01:22;;;;;;;8.02;7.22;;;21.30;92.20;;;;;;5042495;28;20219;-46
2023/06/15 01:03:47;;;;;;;7.63;6.57;;;21.20;92.30;;;;;;5021523;28;20032;-49
2023/06/15 01:06:16;;;;;;;9.60;6.85;;;21.20;92.20;;;;;;5026278;28;20484;-47
2023/06/15 01:08:47;;;;;;;8.30;6.68;;;21.20;92.30;;;;;;5046287;28;20025;-47
2023/06/15 01:11:14;;;;;;;6.55;5.85;;;21.20;92.30;;;;;;5025340;28;20036;-49
2023/06/15 01:13:43;;;;;;;7.85;5.90;;;21.10;92.30;;;;;;5032910;28;20047;-46
2023/06/15 01:16:18;;;;;;;7.35;6.03;;;21.00;92.60;;;;;;5028271;28;20564;-46
2023/06/15 01:18:47;;;;;;;6.18;5.57;;;20.90;92.60;;;;;;5043737;28;20060;-50
2023/06/15 01:21:14;;;;;;;9.77;5.78;;;20.90;92.70;;;;;;5054521;28;20568;-50
2023/06/15 01:23:49;;;;;;;6.70;5.63;;;20.90;92.70;;;;;;5035948;28;20411;-46
2023/06/15 01:26:17;;;;;;;6.63;6.03;;;20.90;92.60;;;;;;5035645;28;20041;-50
2023/06/15 01:28:47;;;;;;;6.75;5.70;;;21.00;92.60;;;;;;5053496;28;20021;-47
2023/06/15 01:31:13;;;;;;;7.88;5.75;;;21.00;92.50;;;;;;5035455;28;20032;-46
2023/06/15 01:33:49;;;;;;;6.50;5.83;;;20.90;92.70;;;;;;5038710;28;20457;-47
2023/06/15 01:36:16;;;;;;;6.30;5.15;;;20.90;92.40;;;;;;5055048;28;20302;-46
2023/06/15 01:38:53;;;;;;;6.72;5.35;;;20.90;92.50;;;;;;5055814;28;20607;-46
2023/06/15 01:41:22;;;;;;;8.02;6.25;;;20.90;92.80;;;;;;5055288;28;20490;-48
2023/06/15 01:43:48;;;;;;;7.70;5.82;;;20.80;92.80;;;;;;5055207;28;20059;-47
2023/06/15 01:46:16;;;;;;;8.75;5.53;;;20.80;93.00;;;;;;5072676;28;20063;-47
2023/06/15 01:48:42;;;;;;;5.93;5.30;;;20.80;93.00;;;;;;5055222;28;20078;-46
2023/06/15 01:51:09;;;;;;;9.10;6.50;;;20.80;93.10;;;;;;5037535;28;20021;-46
2023/06/15 01:53:36;;;;;;;8.57;6.30;;;20.70;93.10;;;;;;5027052;28;20037;-48
2023/06/15 01:56:03;;;;;;;6.60;5.53;;;20.70;93.40;;;;;;5020722;28;20406;-49
2023/06/15 01:58:29;;;;;;;6.75;5.70;;;20.70;93.30;;;;;;5043002;28;20075;-48
2023/06/15 02:00:55;;;;;;;7.68;6.28;;;20.70;93.30;;;;;;5020349;28;20057;-46
2023/06/15 02:03:21;;;;;;;6.43;5.70;;;20.70;93.40;;;;;;5017028;28;20037;-48
2023/06/15 02:08:16;;;;;;;7.80;5.53;;;20.70;93.50;;;;;;4995227;28;20400;-58
2023/06/15 02:10:41;;;;;;;14.18;5.78;;;20.60;93.90;;;;;;4987401;28;20033;-56
2023/06/15 02:13:10;;;;;;;7.80;6.35;;;20.60;94.00;;;;;;5017239;28;20117;-59
2023/06/15 02:15:36;;;;;;;7.70;6.20;;;20.60;93.90;;;;;;5008446;28;20022;-55
2023/06/15 02:18:07;;;;;;;5.43;4.68;;;20.50;94.00;;;;;;5023070;28;20030;-60
2023/06/15 02:20:33;;;;;;;7.55;5.05;;;20.60;94.00;;;;;;5002699;28;20034;-57
2023/06/15 02:22:59;;;;;;;10.93;5.72;;;20.50;94.10;;;;;;5011592;28;20118;-59
2023/06/15 02:25:28;;;;;;;9.02;5.75;;;20.50;94.10;;;;;;5010727;28;20072;-58
2023/06/15 02:27:55;;;;;;;9.70;6.07;;;20.50;94.30;;;;;;5011374;28;20366;-59
2023/06/15 02:30:21;;;;;;;;;;;20.40;94.60;;;;;;5011114;28;20030;-58
2023/06/15 02:32:48;;;;;;;8.23;6.13;;;20.40;94.40;;;;;;5011446;28;19910;-59
2023/06/15 02:35:14;;;;;;;8.50;7.10;;;20.40;94.50;;;;;;5011204;28;20104;-59
2023/06/15 02:37:41;;;;;;;9.80;7.43;;;20.30;94.80;;;;;;5011309;28;20574;-59
2023/06/15 02:40:08;;;;;;;7.47;6.43;;;20.30;95.00;;;;;;5012458;28;20037;-56
2023/06/15 02:42:35;;;;;;;8.13;7.15;;;20.20;95.20;;;;;;5027755;28;20483;-59
2023/06/15 02:45:02;;;;;;;7.18;6.07;;;20.30;95.20;;;;;;5010914;28;20034;-59
2023/06/15 02:47:29;;;;;;;9.23;5.50;;;20.20;95.00;;;;;;5007447;28;20033;-58
2023/06/15 02:49:58;;;;;;;7.13;6.28;;;20.20;95.30;;;;;;5004844;28;20023;-59
2023/06/15 02:52:26;;;;;;;8.73;5.65;;;20.20;95.30;;;;;;4993859;28;20054;-56
2023/06/15 02:54:52;;;;;;;6.68;5.05;;;20.20;95.00;;;;;;5014443;28;20026;-57
2023/06/15 02:57:19;;;;;;;8.95;5.40;;;20.20;94.90;;;;;;4994275;28;20060;-59
2023/06/15 03:00:03;;;;;;;6.40;5.80;;;20.30;94.80;;;;;;4995677;28;20108;-58
2023/06/15 03:02:32;;;;;;;8.07;5.00;;;20.20;94.90;;;;;;4990156;28;20026;-55
2023/06/15 03:04:59;;;;;;;5.57;5.03;;;20.20;94.90;;;;;;5004969;28;20403;-58
2023/06/15 03:07:33;;;;;;;5.45;4.45;;;20.20;94.80;;;;;;5002382;28;20041;-57
2023/06/15 03:10:16;;;;;;;6.18;5.20;;;20.20;94.90;;;;;;4972925;28;20031;-59
2023/06/15 03:12:45;;;;;;;7.18;5.43;;;20.20;94.80;;;;;;4982727;28;20033;-59
2023/06/15 03:15:11;;;;;;;8.53;6.20;;;20.20;94.80;;;;;;4984603;28;20032;-60
2023/06/15 03:17:39;;;;;;;5.68;5.03;;;20.10;94.90;;;;;;4984376;28;20318;-57
2023/06/15 03:20:10;;;;;;;5.47;4.97;;;20.10;95.10;;;;;;4982025;28;20025;-55
2023/06/15 03:22:38;;;;;;;6.22;5.63;;;20.10;95.30;;;;;;4992404;28;20508;-59
2023/06/15 03:25:05;;;;;;;7.38;5.78;;;20.10;95.00;;;;;;5003972;28;20034;-59
2023/06/15 03:27:32;;;;;;;6.50;5.68;;;20.10;95.00;;;;;;4973596;28;20027;-59
2023/06/15 03:30:05;;;;;;;7.10;5.80;;;20.10;95.00;;;;;;4989078;28;20180;-58
2023/06/15 03:32:32;;;;;;;6.93;6.10;;;20.00;95.20;;;;;;4986460;28;20030;-59
2023/06/15 03:34:57;;;;;;;7.38;6.28;;;20.00;95.20;;;;;;4962016;28;20037;-55
2023/06/15 03:37:25;;;;;;;7.35;6.32;;;19.90;95.60;;;;;;4986818;28;20497;-59
2023/06/15 03:39:51;;;;;;;8.20;6.28;;;19.90;95.90;;;;;;4987466;28;20553;-59
2023/06/15 03:42:17;;;;;;;7.07;6.00;;;19.80;95.80;;;;;;4971785;28;20125;-57
2023/06/15 03:44:43;;;;;;;12.75;7.88;;;19.80;95.90;;;;;;4979682;28;20110;-59
2023/06/15 03:47:09;;;;;;;8.20;6.63;;;19.80;95.80;;;;;;4979896;28;20049;-59
2023/06/15 03:49:36;;;;;;;11.80;6.90;;;19.80;95.90;;;;;;4991089;28;20041;-59
2023/06/15 03:52:03;;;;;;;14.38;6.72;;;19.70;96.00;;;;;;4978412;28;20121;-53
2023/06/15 03:54:29;;;;;;;8.20;6.45;;;19.70;96.20;;;;;;4978539;28;20485;-58
2023/06/15 03:56:55;;;;;;;10.23;6.53;;;19.70;96.30;;;;;;4993319;28;20085;-56
2023/06/15 03:59:21;;;;;;;8.15;6.70;;;19.70;96.30;;;;;;4994729;28;20651;-58
2023/06/15 04:01:47;;;;;;;7.30;5.88;;;19.60;96.50;;;;;;4978132;28;20033;-58
2023/06/15 04:04:14;;;;;;;7.30;6.57;;;19.70;96.50;;;;;;4994494;28;20030;-56
2023/06/15 04:06:45;;;;;;;7.30;6.60;;;19.60;96.50;;;;;;4997701;28;20104;-56
2023/06/15 04:09:14;;;;;;;8.85;6.28;;;19.60;96.70;;;;;;5010818;28;20030;-56
2023/06/15 04:11:41;;;;;;;6.80;6.05;;;19.50;96.90;;;;;;4978375;28;20026;-56
2023/06/15 04:14:07;;;;;;;9.68;7.28;;;19.50;97.30;;;;;;4995575;28;20026;-54
2023/06/15 04:16:33;;;;;;;10.48;6.60;;;19.50;97.30;;;;;;4994006;28;20497;-58
2023/06/15 04:18:59;;;;;;;8.88;7.97;;;19.50;97.50;;;;;;4978184;28;20030;-58
2023/06/15 04:21:26;;;;;;;10.00;8.55;;;19.50;97.60;;;;;;4978510;28;20378;-54
2023/06/15 04:23:52;;;;;;;14.63;8.57;;;19.50;97.50;;;;;;4994250;28;20037;-57
2023/06/15 04:26:19;;;;;;;9.90;8.93;;;19.50;97.70;;;;;;4993776;28;20492;-59
2023/06/15 04:28:49;;;;;;;15.43;9.48;;;19.50;97.50;;;;;;4994010;28;20507;-58
2023/06/15 04:31:21;;;;;;;11.00;9.70;;;19.50;97.60;;;;;;4994059;28;20030;-57
2023/06/15 04:33:47;;;;;;;10.27;8.82;;;19.50;97.80;;;;;;4994106;28;20034;-52
2023/06/15 04:36:15;;;;;;;13.45;9.88;;;19.50;97.70;;;;;;4993739;28;20057;-56
2023/06/15 04:38:48;;;;;;;9.70;8.80;;;19.50;98.10;;;;;;4993891;28;20568;-58
2023/06/15 04:41:21;;;;;;;14.60;10.00;;;19.50;98.20;;;;;;4993775;28;20034;-56
2023/06/15 04:43:47;;;;;;;12.35;9.70;;;19.50;98.20;;;;;;4993963;28;20037;-57
2023/06/15 04:46:14;;;;;;;11.77;9.38;;;19.50;98.10;;;;;;4993511;28;20026;-56
2023/06/15 04:48:43;;;;;;;;;;;19.60;98.10;;;;;;4988794;28;20378;-57
2023/06/15 04:51:10;;;;;;;11.57;9.10;;;19.60;97.70;;;;;;4988735;28;19920;-62
2023/06/15 04:53:36;;;;;;;14.75;9.90;;;19.60;97.90;;;;;;4957778;28;20033;-61
2023/06/15 04:56:02;;;;;;;13.32;9.98;;;19.70;98.00;;;;;;4973947;28;20409;-61
2023/06/15 04:58:29;;;;;;;10.65;9.55;;;19.70;98.00;;;;;;4974260;28;20030;-61
2023/06/15 05:00:55;;;;;;;10.27;8.98;;;19.60;98.10;;;;;;4974233;28;20077;-62
2023/06/15 05:03:21;;;;;;;13.80;9.95;;;19.60;98.30;;;;;;4974096;28;20405;-61
2023/06/15 05:05:47;;;;;;;11.47;10.30;;;19.50;98.50;;;;;;4973617;28;20117;-60
2023/06/15 05:08:14;;;;;;;11.25;10.25;;;19.50;98.80;;;;;;5013668;28;20121;-60
2023/06/15 05:10:41;;;;;;;13.15;11.85;;;19.60;99.00;;;;;;5012962;28;20108;-61
2023/06/15 05:13:07;;;;;;;15.68;10.90;;;19.60;99.40;;;;;;5013059;28;20031;-61
2023/06/15 05:15:35;;;;;;;12.98;11.68;;;19.60;99.40;;;;;;5012695;28;20060;-61
2023/06/15 05:18:01;;;;;;;20.65;12.63;;;19.60;99.50;;;;;;5012755;28;20057;-53
2023/06/15 05:20:27;;;;;;;15.15;12.18;;;19.70;99.20;;;;;;4998296;28;20496;-59
2023/06/15 05:22:52;;;;;;;16.30;11.52;;;19.60;99.40;;;;;;5012777;28;20507;-58
2023/06/15 05:25:19;;;;;;;15.65;11.80;;;19.70;99.40;;;;;;4979864;28;20037;-57
2023/06/15 05:27:45;;;;;;;15.50;13.48;;;19.70;99.40;;;;;;5012633;28;20034;-59
2023/06/15 05:30:12;;;;;;;;;;;19.80;99.40;;;;;;5014312;28;20030;-57
2023/06/15 05:32:39;;;;;;;15.40;11.88;;;19.80;99.70;;;;;;4996324;28;19909;-52
2023/06/15 05:35:08;;;;;;;17.27;12.02;;;19.90;99.60;;;;;;5012217;28;20052;-57
2023/06/15 05:37:36;;;;;;;15.63;11.88;;;19.90;99.30;;;;;;5012593;28;20415;-48
2023/06/15 05:40:03;;;;;;;13.45;11.65;;;20.00;99.20;;;;;;5012466;28;20034;-48
2023/06/15 05:42:31;;;;;;;15.13;12.35;;;20.00;99.30;;;;;;5013710;28;20118;-50
2023/06/15 05:44:57;;;;;;;13.32;11.57;;;20.10;99.10;;;;;;5012084;28;20108;-48
2023/06/15 05:47:23;;;;;;;13.57;11.52;;;20.10;99.20;;;;;;4979765;28;20067;-48
2023/06/15 05:49:49;;;;;;;14.18;11.85;;;20.20;98.80;;;;;;5011865;28;20034;-53
2023/06/15 05:52:17;;;;;;;14.27;12.77;;;20.20;98.90;;;;;;4979751;28;20033;-48
2023/06/15 05:54:45;;;;;;;13.70;10.50;;;20.30;99.00;;;;;;4995602;28;20273;-53
2023/06/15 05:57:13;;;;;;;11.98;10.77;;;20.40;98.30;;;;;;4995997;28;20030;-52
2023/06/15 05:59:40;;;;;;;12.82;11.32;;;20.40;98.00;;;;;;5012092;28;20033;-52
2023/06/15 06:02:08;;;;;;;20.40;11.55;;;20.40;97.80;;;;;;5012203;28;20064;-52
2023/06/15 06:04:35;;;;;;;11.20;10.00;;;20.50;97.90;;;;;;5011391;28;20056;-51
2023/06/15 06:07:06;;;;;;;10.75;9.65;;;20.50;97.80;;;;;;4994814;28;20500;-50
2023/06/15 06:09:34;;;;;;;11.05;9.55;;;20.60;97.50;;;;;;4995597;28;20034;-49
2023/06/15 06:12:01;;;;;;;;;;;20.60;97.40;;;;;;5012442;28;20030;-58
2023/06/15 06:14:27;;;;;;;12.15;10.05;;;20.70;96.30;;;;;;5013113;28;19909;-57
2023/06/15 06:16:54;;;;;;;8.93;8.05;;;20.70;96.90;;;;;;5010887;28;20176;-59
2023/06/15 06:19:21;;;;;;;10.30;8.00;;;20.80;96.70;;;;;;5012083;28;20388;-59
2023/06/15 06:21:48;;;;;;;9.27;7.60;;;20.90;96.40;;;;;;4995336;28;20107;-60
2023/06/15 06:24:14;;;;;;;9.15;7.72;;;20.90;95.70;;;;;;4995201;28;20518;-57
2023/06/15 06:26:43;;;;;;;13.70;8.20;;;21.00;95.30;;;;;;4994955;28;20116;-57
2023/06/15 06:29:09;;;;;;;12.25;9.88;;;21.00;95.50;;;;;;5012760;28;20026;-57
2023/06/15 06:31:35;;;;;;;10.73;8.63;;;21.00;96.00;;;;;;5012809;28;20447;-58
2023/06/15 06:34:01;;;;;;;10.02;8.40;;;21.20;95.80;;;;;;4995245;28;20077;-59
2023/06/15 06:36:27;;;;;;;10.27;8.18;;;21.20;95.70;;;;;;4994838;28;20116;-56
2023/06/15 06:38:53;;;;;;;11.47;8.43;;;21.30;95.80;;;;;;5012693;28;20030;-58
2023/06/15 06:41:18;;;;;;;9.50;8.30;;;21.30;95.00;;;;;;5012594;28;20084;-56
2023/06/15 06:43:44;;;;;;;10.32;7.68;;;21.30;94.90;;;;;;5012530;28;20030;-58
2023/06/15 06:46:10;;;;;;;10.93;8.05;;;21.40;94.70;;;;;;5012166;28;20373;-60
2023/06/15 06:48:36;;;;;;;9.50;7.45;;;21.40;94.70;;;;;;5012490;28;20038;-58
2023/06/15 06:51:02;;;;;;;9.47;8.00;;;21.40;94.80;;;;;;5012487;28;20036;-60
2023/06/15 06:53:28;;;;;;;9.10;7.60;;;21.50;94.40;;;;;;5012401;28;20025;-59
2023/06/15 06:55:54;;;;;;;6.88;6.18;;;21.60;94.40;;;;;;5012101;28;20049;-59
2023/06/15 06:58:20;;;;;;;5.70;5.20;;;21.60;93.90;;;;;;5012320;28;20030;-60
2023/06/15 07:00:46;;;;;;;6.47;5.88;;;21.70;93.20;;;;;;5012335;28;20657;-58
2023/06/15 07:03:12;;;;;;;12.13;6.15;;;21.70;93.30;;;;;;4994797;28;20117;-59
2023/06/15 07:05:38;;;;;;;8.38;7.57;;;21.80;92.70;;;;;;5011947;28;20116;-58
2023/06/15 07:08:04;;;;;;;9.17;6.20;;;21.80;92.90;;;;;;5011946;28;20033;-59
2023/06/15 07:10:30;;;;;;;7.35;6.18;;;21.90;93.00;;;;;;5012404;28;20041;-57
2023/06/15 07:12:56;;;;;;;9.57;6.03;;;22.00;92.50;;;;;;5012120;28;20022;-59
2023/06/15 07:15:23;;;;;;;7.50;5.88;;;22.00;92.10;;;;;;5012037;28;20038;-57
2023/06/15 07:17:49;;;;;;;7.68;5.78;;;22.00;91.10;;;;;;4994231;28;20044;-61
2023/06/15 07:20:15;;;;;;;6.80;6.10;;;22.00;91.20;;;;;;5011113;28;20041;-61
2023/06/15 07:22:42;;;;;;;8.83;6.63;;;22.10;90.80;;;;;;5008788;28;20030;-60
2023/06/15 07:25:08;;;;;;;6.68;6.05;;;22.10;91.30;;;;;;5010722;28;20108;-59
2023/06/15 07:27:34;;;;;;;11.90;6.40;;;22.20;91.60;;;;;;5011131;28;20049;-60
2023/06/15 07:30:00;;;;;;;7.40;6.63;;;22.20;91.80;;;;;;5011541;28;20054;-58
2023/06/15 07:32:26;;;;;;;8.20;6.00;;;22.30;91.70;;;;;;5012014;28;20113;-58
2023/06/15 07:34:51;;;;;;;11.53;6.80;;;22.30;91.40;;;;;;5011776;28;20117;-58
2023/06/15 07:37:17;;;;;;;7.93;6.50;;;22.40;91.50;;;;;;5011829;28;20034;-59
2023/06/15 07:39:43;;;;;;;6.97;5.57;;;22.50;91.50;;;;;;5011869;28;20088;-59
2023/06/15 07:42:09;;;;;;;7.80;6.40;;;22.60;91.40;;;;;;5011956;28;20037;-60
2023/06/15 07:44:35;;;;;;;6.80;6.20;;;22.70;90.90;;;;;;5011817;28;20030;-57
2023/06/15 07:47:01;;;;;;;8.18;7.00;;;22.70;90.10;;;;;;4994042;28;20030;-60
2023/06/15 07:49:27;;;;;;;8.23;6.78;;;22.80;89.70;;;;;;5011826;28;20092;-59
2023/06/15 07:51:53;;;;;;;8.60;7.03;;;22.80;89.80;;;;;;5011709;28;20632;-56
2023/06/15 07:54:19;;;;;;;8.52;7.32;;;22.80;90.20;;;;;;4994281;28;20032;-59
2023/06/15 07:56:45;;;;;;;8.80;6.95;;;22.90;90.60;;;;;;5011512;28;20435;-59
2023/06/15 07:59:12;;;;;;;7.50;6.80;;;22.90;90.00;;;;;;5011631;28;20030;-61
2023/06/15 08:01:38;;;;;;;14.00;7.53;;;23.00;90.40;;;;;;5011682;28;20117;-61
2023/06/15 08:04:04;;;;;;;7.53;6.73;;;23.10;90.70;;;;;;4994196;28;20164;-60
2023/06/15 08:06:30;;;;;;;10.73;8.10;;;23.10;89.50;;;;;;5011012;28;20044;-59
2023/06/15 08:08:56;;;;;;;9.23;8.32;;;23.20;89.60;;;;;;5010260;28;20045;-58
2023/06/15 08:11:22;;;;;;;11.20;8.70;;;23.20;90.00;;;;;;5010347;28;20037;-60
2023/06/15 08:13:48;;;;;;;9.07;8.27;;;23.30;88.00;;;;;;5011015;28;20026;-60
2023/06/15 08:16:14;;;;;;;15.20;8.10;;;23.20;88.20;;;;;;5011149;28;20029;-59
2023/06/15 08:18:40;;;;;;;8.43;7.63;;;23.30;89.50;;;;;;5011445;28;20034;-61
2023/06/15 08:21:06;;;;;;;9.63;8.67;;;23.30;86.90;;;;;;5011414;28;20551;-61
2023/06/15 08:23:31;;;;;;;9.77;7.83;;;23.30;88.30;;;;;;5011538;28;20362;-60
2023/06/15 08:25:57;;;;;;;8.07;7.33;;;23.40;89.40;;;;;;5011062;28;20052;-59
2023/06/15 08:28:23;;;;;;;9.00;8.10;;;23.50;89.40;;;;;;5011838;28;20022;-60
2023/06/15 08:30:51;;;;;;;9.38;8.48;;;23.50;87.90;;;;;;4997264;28;20025;-59
2023/06/15 08:33:18;;;;;;;9.63;8.53;;;23.70;87.10;;;;;;4997430;28;20496;-60
2023/06/15 08:35:44;;;;;;;8.40;7.30;;;23.70;87.00;;;;;;4997116;28;20037;-60
2023/06/15 08:38:10;;;;;;;10.82;8.00;;;23.80;87.40;;;;;;4997186;28;20077;-58
2023/06/15 08:40:36;;;;;;;10.90;7.73;;;23.80;86.20;;;;;;5014760;28;20061;-60
2023/06/15 08:43:03;;;;;;;11.07;8.17;;;23.90;85.50;;;;;;5014653;28;20030;-60
2023/06/15 08:45:41;;;;;;;9.20;8.27;;;23.90;85.50;;;;;;4996938;28;20484;-60
2023/06/15 08:48:09;;;;;;;14.82;9.32;;;24.00;85.70;;;;;;4997046;28;20033;-58
2023/06/15 08:50:38;;;;;;;8.60;7.07;;;24.00;85.70;;;;;;4996973;28;20400;-60
2023/06/15 08:53:06;;;;;;;9.32;8.43;;;24.20;84.50;;;;;;5014397;28;20034;-61
2023/06/15 08:55:33;;;;;;;11.38;9.30;;;24.20;84.30;;;;;;4996740;28;20033;-60
2023/06/15 08:58:01;;;;;;;9.77;8.35;;;24.30;83.30;;;;;;5014378;28;20393;-59
2023/06/15 09:00:28;;;;;;;11.30;9.02;;;24.30;84.60;;;;;;5014391;28;20041;-62
2023/06/15 09:02:59;;;;;;;10.10;9.15;;;24.40;85.70;;;;;;5014470;28;20056;-62
2023/06/15 09:05:26;;;;;;;10.45;8.95;;;24.40;82.40;;;;;;5013846;28;20030;-62
2023/06/15 09:07:52;;;;;;;9.88;8.50;;;24.40;82.40;;;;;;5014073;28;20046;-62
2023/06/15 09:10:20;;;;;;;11.73;9.05;;;24.40;84.80;;;;;;5014174;28;20155;-62
2023/06/15 09:12:52;;;;;;;9.57;8.57;;;24.40;85.10;;;;;;4996498;28;20116;-62
2023/06/15 09:15:20;;;;;;;8.50;7.65;;;24.50;84.40;;;;;;5013891;28;20557;-62
2023/06/15 09:17:50;;;;;;;9.85;8.43;;;24.60;80.10;;;;;;5013950;28;20030;-62
2023/06/15 09:20:18;;;;;;;9.70;8.70;;;24.60;79.60;;;;;;4996218;28;20038;-62
2023/06/15 09:22:45;;;;;;;13.13;9.40;;;24.60;78.80;;;;;;5013899;28;20083;-62
2023/06/15 09:25:12;;;;;;;8.75;7.68;;;24.50;79.90;;;;;;5013524;28;20496;-62
2023/06/15 09:27:38;;;;;;;9.52;7.15;;;24.60;80.30;;;;;;5013972;28;20034;-62
2023/06/15 09:30:06;;;;;;;8.73;7.40;;;24.70;78.70;;;;;;4996298;28;20089;-62
2023/06/15 09:32:31;;;;;;;9.40;6.60;;;24.70;77.10;;;;;;5013712;28;20037;-62
2023/06/15 09:34:58;;;;;;;8.67;7.77;;;24.80;76.00;;;;;;5013490;28;20096;-62
2023/06/15 09:37:27;;;;;;;;;;;24.90;74.20;;;;;;5012783;28;20026;-62
2023/06/15 09:39:54;;;;;;;8.20;7.40;;;25.00;74.10;;;;;;5012660;28;19916;-62
2023/06/15 09:42:29;;;;;;;12.55;7.95;;;25.10;73.60;;;;;;5013336;28;20088;-62
2023/06/15 09:44:59;;;;;;;7.85;7.05;;;25.10;73.40;;;;;;5013400;28;20057;-61
2023/06/15 09:47:31;;;;;;;11.65;6.93;;;25.20;74.10;;;;;;5013474;28;20026;-61
2023/06/15 09:49:58;;;;;;;15.35;7.10;;;25.20;74.00;;;;;;5013558;28;20096;-61
2023/06/15 09:52:24;;;;;;;8.88;6.95;;;25.40;71.90;;;;;;5013601;28;20030;-61
2023/06/15 09:54:53;;;;;;;8.23;6.83;;;25.50;71.90;;;;;;5013449;28;20083;-61
2023/06/15 09:57:19;;;;;;;7.13;5.53;;;25.60;70.50;;;;;;5013333;28;20087;-62
2023/06/15 09:59:45;;;;;;;9.82;7.72;;;25.60;72.30;;;;;;5013340;28;20065;-58
2023/06/15 10:02:15;;;;;;;8.23;5.40;;;25.70;72.00;;;;;;5013280;28;20022;-54
2023/06/15 10:04:45;;;;;;;8.30;6.15;;;25.70;70.60;;;;;;5012974;28;20038;-60
2023/06/15 10:07:12;;;;;;;10.65;6.70;;;25.80;70.20;;;;;;5012977;28;20026;-60
2023/06/15 10:09:49;;;;;;;9.48;7.38;;;25.80;70.90;;;;;;5013137;28;20021;-60
2023/06/15 10:12:18;;;;;;;10.35;6.10;;;25.90;71.80;;;;;;5013151;28;20385;-60
2023/06/15 10:14:49;;;;;;;8.35;6.25;;;26.00;71.10;;;;;;5012802;28;20038;-60
2023/06/15 10:17:19;;;;;;;7.20;6.15;;;26.10;68.60;;;;;;5012969;28;20057;-60
2023/06/15 10:19:48;;;;;;;6.57;5.95;;;26.00;68.30;;;;;;5013011;28;20041;-57
2023/06/15 10:22:18;;;;;;;9.55;6.88;;;26.10;69.80;;;;;;5012882;28;20026;-60
2023/06/15 10:24:45;;;;;;;7.05;5.70;;;26.20;67.30;;;;;;5011193;28;20026;-60
2023/06/15 10:27:11;;;;;;;;;;;26.20;69.20;;;;;;5013309;28;20026;-61
2023/06/15 10:30:18;;;;;;;7.60;6.40;;;26.30;67.40;;;;;;5012719;28;20291;-60
2023/06/15 10:33:06;;;;;;;10.27;6.70;;;26.30;65.20;;;;;;5012459;28;20500;-61
2023/06/15 10:35:40;;;;;;;7.60;6.55;;;26.30;66.80;;;;;;5001123;28;20045;-60
2023/06/15 10:38:24;;;;;;;9.23;6.40;;;26.40;66.30;;;;;;5012704;28;20029;-59
2023/06/15 10:40:51;;;;;;;5.60;5.00;;;26.50;65.70;;;;;;5012505;28;20045;-60
2023/06/15 10:43:21;;;;;;;5.82;4.57;;;26.50;66.70;;;;;;5012677;28;20034;-60
2023/06/15 10:45:48;;;;;;;5.80;4.82;;;26.70;65.00;;;;;;5010951;28;20111;-61
2023/06/15 10:48:26;;;;;;;;;;;26.80;64.90;;;;;;5012660;28;20022;-57
2023/06/15 10:51:01;;;;;;;6.32;5.30;;;26.90;66.70;;;;;;5012413;28;19910;-57
2023/06/15 10:53:28;;;;;;;7.35;5.53;;;26.90;65.80;;;;;;5011103;28;20033;-58
2023/06/15 10:55:56;;;;;;;6.72;6.03;;;27.00;64.70;;;;;;5011771;28;20101;-51
2023/06/15 10:58:22;;;;;;;5.35;4.85;;;27.10;65.50;;;;;;5010360;28;20042;-57
2023/06/15 11:01:15;;;;;;;7.50;5.57;;;27.10;64.40;;;;;;5011893;28;20374;-55
2023/06/15 11:03:42;;;;;;;5.75;5.20;;;27.20;63.40;;;;;;4992334;28;20113;-57
2023/06/15 11:06:13;;;;;;;;;;;27.20;62.90;;;;;;4977906;28;20022;-53
2023/06/15 11:08:49;;;;;;;113.18;102.15;;;27.10;60.10;;;;;;5012214;28;20342;-56
2023/06/15 11:11:20;;;;;;;7.85;5.72;;;27.10;61.90;;;;;;5012004;28;20476;-56
2023/06/15 11:14:07;;;;;;;9.55;5.25;;;27.40;65.50;;;;;;4994620;28;20030;-53
2023/06/15 11:16:37;;;;;;;6.47;5.83;;;27.70;63.90;;;;;;4994261;28;20041;-56
2023/06/15 11:19:13;;;;;;;5.80;4.95;;;27.90;60.80;;;;;;4994316;28;20511;-57
2023/06/15 11:21:50;;;;;;;6.78;5.10;;;27.90;61.00;;;;;;4978097;28;20100;-58
2023/06/15 11:24:16;;;;;;;;;;;27.90;62.10;;;;;;5010174;28;20119;-60
2023/06/15 11:26:43;;;;;;;5.40;4.57;;;28.00;59.90;;;;;;5011719;28;19988;-55
2023/06/15 11:29:12;;;;;;;;;;;28.00;58.90;;;;;;5012355;28;20431;-56
2023/06/15 11:31:41;;;;;;;5.18;4.43;;;28.00;59.90;;;;;;4994271;28;20371;-55
2023/06/15 11:34:11;;;;;;;8.00;4.63;;;28.20;60.60;;;;;;5011959;28;20029;-62
2023/06/15 11:36:37;;;;;;;4.57;4.13;;;28.30;59.90;;;;;;5011693;28;20037;-62
2023/06/15 11:39:07;;;;;;;;;;;28.40;60.70;;;;;;4994797;28;20682;-62
2023/06/15 11:41:33;;;;;;;7.15;4.32;;;28.30;58.40;;;;;;5011821;28;20371;-62
2023/06/15 11:43:59;;;;;;;4.28;3.88;;;28.40;59.10;;;;;;5012095;28;20030;-62
2023/06/15 11:46:25;;;;;;;7.97;4.57;;;28.50;59.60;;;;;;5011578;28;20041;-61
2023/06/15 11:48:56;;;;;;;4.65;3.67;;;28.70;57.80;;;;;;4994120;28;20292;-61
2023/06/15 11:51:22;;;;;;;4.53;3.90;;;28.80;57.70;;;;;;4994263;28;20421;-61
2023/06/15 11:53:48;;;;;;;5.50;3.20;;;28.90;57.30;;;;;;5011790;28;20025;-61
2023/06/15 11:56:15;;;;;;;5.23;4.17;;;29.10;56.00;;;;;;4977676;28;20125;-61
2023/06/15 11:58:46;;;;;;;7.13;4.32;;;29.10;54.80;;;;;;5011600;28;20323;-61
2023/06/15 12:01:13;;;;;;;7.50;3.28;;;29.00;54.80;;;;;;5017332;28;20026;-61
2023/06/15 12:03:51;;;;;;;5.93;4.15;;;29.10;57.30;;;;;;5009870;28;20025;-61
2023/06/15 12:06:18;;;;;;;4.65;3.95;;;29.30;56.20;;;;;;5016941;28;20030;-61
2023/06/15 12:08:55;;;;;;;4.63;3.50;;;29.40;54.80;;;;;;5001693;28;20029;-61
2023/06/15 12:11:27;;;;;;;5.30;4.03;;;29.60;55.60;;;;;;5004683;28;20030;-61
2023/06/15 12:14:00;;;;;;;7.07;4.28;;;29.70;55.20;;;;;;5001040;28;20558;-61
2023/06/15 12:16:26;;;;;;;4.97;4.47;;;29.70;53.60;;;;;;5016805;28;20099;-61
2023/06/15 12:18:58;;;;;;;6.43;4.28;;;29.60;53.00;;;;;;5028271;28;20033;-61
2023/06/15 12:21:27;;;;;;;8.30;5.28;;;29.60;53.40;;;;;;5012295;28;20033;-61
2023/06/15 12:23:53;;;;;;;6.07;4.95;;;29.70;53.60;;;;;;5023559;28;20507;-61
2023/06/15 12:26:22;;;;;;;4.67;4.23;;;29.80;53.20;;;;;;5022057;28;20033;-61
2023/06/15 12:28:49;;;;;;;4.90;4.15;;;29.80;54.30;;;;;;5021452;28;20316;-61
2023/06/15 12:31:15;;;;;;;5.85;3.53;;;29.90;55.80;;;;;;5028099;28;20009;-61
2023/06/15 12:33:42;;;;;;;4.72;4.07;;;30.10;56.20;;;;;;5027500;28;20030;-61
2023/06/15 12:36:15;;;;;;;6.93;4.40;;;30.20;54.50;;;;;;5007340;28;20041;-61
2023/06/15 12:38:46;;;;;;;5.57;4.72;;;30.30;54.50;;;;;;5019339;28;20133;-61
2023/06/15 12:41:13;;;;;;;7.88;4.00;;;30.30;53.90;;;;;;5013082;28;20029;-61
2023/06/15 12:43:39;;;;;;;4.63;4.07;;;30.50;55.10;;;;;;5023368;28;20034;-61
2023/06/15 12:46:05;;;;;;;5.30;4.60;;;30.70;54.80;;;;;;5015710;28;20109;-61
2023/06/15 12:48:33;;;;;;;5.75;4.90;;;31.00;53.60;;;;;;5027940;28;20033;-61
2023/06/15 12:50:59;;;;;;;5.10;4.60;;;31.00;53.10;;;;;;5000038;28;20053;-61